Ash Grove, Nebraska
Current Conditions -  °F | °C
As of 6:15 AM on Friday 31 Oct 2014 (Local Time) from KHDE Reporting Station
Broken Clouds Broken Clouds  
Wind Chill: 21°   Ceiling: 1700
Heat Index: 32°   Visibility: 10mi
Dew Point: 26°   Wind: 16mph
Humidity: 78%   Direction: 20°NNE
Pressure: 30.5"   Gusts: 22mph
Location:  40.1734°N, 98.8989°W
Report Text: KHDE 311115Z AUTO 02014G19KT 10SM BKN017 00/M03 A3050 RMK AO2 T00001035
Loading
Personal Weather Stations






























Interactive Weather Map New forecast layout! Learn more

10-Day Weather Forecast

Advertisements
Track Severe Weather on mobile